createdAt,value
2018-02-13T00:01:48.508Z,76.91
2018-02-13T00:04:16.309Z,76.70
2018-02-13T00:06:43.886Z,77.13
2018-02-13T00:09:11.476Z,76.55
2018-02-13T00:11:39.822Z,76.63
2018-02-13T00:14:07.385Z,76.86
2018-02-13T00:16:35.142Z,76.48
2018-02-13T00:19:03.026Z,76.67
2018-02-13T00:21:30.825Z,76.64
2018-02-13T00:23:58.665Z,76.74
2018-02-13T00:26:26.435Z,76.95
2018-02-13T00:28:54.310Z,76.14
2018-02-13T00:31:22.122Z,77.37
2018-02-13T00:33:49.678Z,76.72
2018-02-13T00:36:17.477Z,77.05
2018-02-13T00:38:45.046Z,76.58
2018-02-13T00:41:12.865Z,77.14
2018-02-13T00:43:40.726Z,76.20
2018-02-13T00:46:08.277Z,76.73
2018-02-13T00:48:35.847Z,77.18
2018-02-13T00:51:03.468Z,77.18
2018-02-13T00:53:31.525Z,76.32
2018-02-13T00:55:59.332Z,76.00
2018-02-13T00:58:28.201Z,76.82
2018-02-13T01:00:56.947Z,76.89
2018-02-13T01:03:24.574Z,76.33
2018-02-13T01:05:52.230Z,76.90
2018-02-13T01:08:19.956Z,76.84
2018-02-13T01:10:48.113Z,76.51
2018-02-13T01:13:15.782Z,76.63
2018-02-13T01:15:43.492Z,76.10
2018-02-13T01:18:11.103Z,76.18
2018-02-13T01:20:39.564Z,76.36
2018-02-13T01:23:08.184Z,76.57
2018-02-13T01:25:36.241Z,77.08
2018-02-13T01:28:03.889Z,76.50
2018-02-13T01:30:31.487Z,76.79
2018-02-13T01:32:59.634Z,76.95
2018-02-13T01:35:27.293Z,76.23
2018-02-13T01:37:55.043Z,77.28
2018-02-13T01:40:23.362Z,77.21
2018-02-13T01:42:51.216Z,76.66
2018-02-13T01:45:19.308Z,76.03
2018-02-13T01:47:47.134Z,76.58
2018-02-13T01:50:25.558Z,76.78
2018-02-13T01:52:54.458Z,76.86
2018-02-13T01:55:22.126Z,76.77
2018-02-13T01:57:50.540Z,76.58
2018-02-13T02:00:18.154Z,77.37
2018-02-13T02:02:45.810Z,76.50
2018-02-13T02:05:13.410Z,76.21
2018-02-13T02:07:41.443Z,76.94
2018-02-13T02:10:10.764Z,76.95
2018-02-13T02:12:38.404Z,76.80
2018-02-13T02:15:06.780Z,76.38
2018-02-13T02:17:34.455Z,76.73
2018-02-13T02:20:02.120Z,76.69
2018-02-13T02:22:29.748Z,76.63
2018-02-13T02:24:57.455Z,76.55
2018-02-13T02:27:25.837Z,76.77
2018-02-13T02:29:53.764Z,76.88
2018-02-13T02:32:21.429Z,76.88
2018-02-13T02:34:49.255Z,76.84
2018-02-13T02:37:16.863Z,76.71
2018-02-13T02:39:44.463Z,76.87
2018-02-13T02:42:12.086Z,75.90
2018-02-13T02:44:40.145Z,76.86
2018-02-13T02:47:07.763Z,76.72
2018-02-13T02:49:35.404Z,76.76
2018-02-13T02:52:03.019Z,76.60
2018-02-13T02:54:30.597Z,76.75
2018-02-13T02:56:58.229Z,76.70
2018-02-13T02:59:25.863Z,77.14
2018-02-13T03:01:53.511Z,77.13
2018-02-13T03:04:22.177Z,76.44
2018-02-13T03:06:49.792Z,76.61
2018-02-13T03:09:17.355Z,76.24
2018-02-13T03:11:45.050Z,76.59
2018-02-13T03:14:13.393Z,76.87
2018-02-13T03:16:41.755Z,76.89
2018-02-13T03:19:09.389Z,76.34
2018-02-13T03:21:37.381Z,76.79
2018-02-13T03:24:05.100Z,76.49
2018-02-13T03:26:32.905Z,76.54
2018-02-13T03:29:00.539Z,76.77
2018-02-13T03:31:28.151Z,76.71
2018-02-13T03:33:57.115Z,77.03
2018-02-13T03:36:25.650Z,77.12
2018-02-13T03:38:53.704Z,76.95
2018-02-13T03:41:21.588Z,77.09
2018-02-13T03:43:49.228Z,76.50
2018-02-13T03:46:17.619Z,76.58
2018-02-13T03:48:45.218Z,77.06
2018-02-13T03:51:12.897Z,76.58
2018-02-13T03:53:40.574Z,76.32
2018-02-13T03:56:08.247Z,77.08
2018-02-13T03:58:35.853Z,77.00
2018-02-13T04:01:03.445Z,76.91
2018-02-13T04:03:31.060Z,77.00
2018-02-13T04:05:59.786Z,77.07
2018-02-13T04:08:27.900Z,77.14
2018-02-13T04:10:55.507Z,76.89
2018-02-13T04:13:23.117Z,76.96
2018-02-13T04:15:51.578Z,77.16
2018-02-13T04:18:19.153Z,77.15
2018-02-13T04:20:46.782Z,77.06
2018-02-13T04:23:15.056Z,76.96
2018-02-13T04:25:42.907Z,77.20
2018-02-13T04:28:10.949Z,76.39
2018-02-13T04:30:39.065Z,76.20
2018-02-13T04:33:07.136Z,77.12
2018-02-13T04:35:35.540Z,76.80
2018-02-13T04:38:04.488Z,76.91
2018-02-13T04:40:33.287Z,77.12
2018-02-13T04:43:02.171Z,77.16
2018-02-13T04:45:30.019Z,76.39
2018-02-13T04:47:59.029Z,76.80
2018-02-13T04:50:26.956Z,76.89
2018-02-13T04:52:55.011Z,76.97
2018-02-13T04:55:22.694Z,76.54
2018-02-13T04:57:50.565Z,76.92
2018-02-13T05:00:19.257Z,76.95
2018-02-13T05:02:47.726Z,76.89
2018-02-13T05:05:15.534Z,77.05
2018-02-13T05:07:43.343Z,77.13
2018-02-13T05:10:11.078Z,77.12
2018-02-13T05:12:39.638Z,76.82
2018-02-13T05:15:07.461Z,76.82
2018-02-13T05:17:35.336Z,77.31
2018-02-13T05:20:03.052Z,84.23
2018-02-13T05:22:30.771Z,80.79
2018-02-13T05:24:58.413Z,79.50
2018-02-13T05:27:26.369Z,78.74
2018-02-13T05:29:53.978Z,90.03
2018-02-13T05:32:22.609Z,95.91
2018-02-13T05:34:50.225Z,89.13
2018-02-13T05:37:17.834Z,83.98
2018-02-13T05:39:45.647Z,83.36
2018-02-13T05:42:13.184Z,73.99
2018-02-13T05:44:41.028Z,71.55
2018-02-13T05:47:08.965Z,74.72
2018-02-13T05:49:36.526Z,63.73
2018-02-13T05:52:04.320Z,62.60
2018-02-13T05:54:32.066Z,62.37
2018-02-13T05:56:59.652Z,62.41
2018-02-13T05:59:27.213Z,62.66
2018-02-13T06:01:54.835Z,62.88
2018-02-13T06:04:22.364Z,63.15
2018-02-13T06:06:49.935Z,63.19
2018-02-13T06:09:17.454Z,63.43
2018-02-13T06:11:45.023Z,63.12
2018-02-13T06:14:12.627Z,63.04
2018-02-13T06:16:40.198Z,62.95
2018-02-13T06:19:07.753Z,62.26
2018-02-13T06:21:35.281Z,62.19
2018-02-13T06:24:02.827Z,62.67
2018-02-13T06:26:30.483Z,62.71
2018-02-13T06:28:57.991Z,63.96
2018-02-13T06:31:25.536Z,63.80
2018-02-13T06:33:53.094Z,65.06
2018-02-13T06:36:20.646Z,64.77
2018-02-13T06:38:48.431Z,64.35
2018-02-13T06:41:16.988Z,63.90
2018-02-13T06:43:44.517Z,63.78
2018-02-13T06:46:12.038Z,63.95
2018-02-13T06:48:39.566Z,63.36
2018-02-13T06:51:07.108Z,62.72
2018-02-13T06:53:34.669Z,62.21
2018-02-13T06:56:02.230Z,62.06
2018-02-13T06:58:30.037Z,61.86
2018-02-13T07:00:57.591Z,61.36
2018-02-13T07:03:25.127Z,61.91
2018-02-13T07:05:53.558Z,61.49
2018-02-13T07:08:21.435Z,61.07
2018-02-13T07:10:48.970Z,60.69
2018-02-13T07:13:16.612Z,60.86
2018-02-13T07:15:44.173Z,60.71
2018-02-13T07:18:11.948Z,60.27
2018-02-13T07:20:39.506Z,59.52
2018-02-13T07:23:07.095Z,58.88
2018-02-13T07:25:34.733Z,58.91
2018-02-13T07:28:02.328Z,58.76
2018-02-13T07:30:30.248Z,58.71
2018-02-13T07:32:57.769Z,58.21
2018-02-13T07:35:25.308Z,58.81
2018-02-13T07:37:52.855Z,57.30
2018-02-13T07:40:20.730Z,56.52
2018-02-13T07:42:48.299Z,56.03
2018-02-13T07:45:15.891Z,56.17
2018-02-13T07:47:43.451Z,55.42
2018-02-13T07:50:11.285Z,55.56
2018-02-13T07:52:38.878Z,55.75
2018-02-13T07:55:06.665Z,56.06
2018-02-13T07:57:34.443Z,56.44
2018-02-13T08:00:02.237Z,56.48
2018-02-13T08:02:29.760Z,57.00
2018-02-13T08:04:57.299Z,57.49
2018-02-13T08:07:24.851Z,57.75
2018-02-13T08:09:52.399Z,58.06
2018-02-13T08:12:19.939Z,58.37
2018-02-13T08:14:47.468Z,59.00
2018-02-13T08:17:14.996Z,59.30
2018-02-13T08:19:42.554Z,59.27
2018-02-13T08:22:10.080Z,58.79
2018-02-13T08:24:38.453Z,58.69
2018-02-13T08:27:05.977Z,59.07
2018-02-13T08:29:33.726Z,58.63
2018-02-13T08:32:01.340Z,58.29
2018-02-13T08:34:28.877Z,58.76
2018-02-13T08:36:56.769Z,59.32
2018-02-13T08:39:24.295Z,59.06
2018-02-13T08:41:51.810Z,59.27
2018-02-13T08:44:19.356Z,58.76
2018-02-13T08:46:46.884Z,58.26
2018-02-13T08:49:14.431Z,58.13
2018-02-13T08:51:41.949Z,57.26
2018-02-13T08:54:09.756Z,57.96
2018-02-13T08:56:37.289Z,55.91
2018-02-13T08:59:05.354Z,54.55
2018-02-13T09:01:33.203Z,53.88
2018-02-13T09:04:00.744Z,53.17
2018-02-13T09:06:28.701Z,51.77
2018-02-13T09:08:56.887Z,50.94
2018-02-13T09:11:24.428Z,50.66
2018-02-13T09:13:51.990Z,51.53
2018-02-13T09:16:19.516Z,52.48
2018-02-13T09:18:47.040Z,53.50
2018-02-13T09:21:14.558Z,54.41
2018-02-13T09:23:43.040Z,54.93
2018-02-13T09:26:10.605Z,55.94
2018-02-13T09:28:38.164Z,56.43
2018-02-13T09:31:06.043Z,55.83
2018-02-13T09:33:33.812Z,55.14
2018-02-13T09:36:01.343Z,54.70
2018-02-13T09:38:28.885Z,53.77
2018-02-13T09:40:56.432Z,54.59
2018-02-13T09:43:24.030Z,54.77
2018-02-13T09:45:51.638Z,55.81
2018-02-13T09:48:19.201Z,56.39
2018-02-13T09:50:46.717Z,56.10
2018-02-13T09:53:14.228Z,56.63
2018-02-13T09:55:41.782Z,56.27
2018-02-13T09:58:09.340Z,56.01
2018-02-13T10:00:36.906Z,57.42
2018-02-13T10:03:04.458Z,60.16
2018-02-13T10:05:31.990Z,59.84
2018-02-13T10:07:59.507Z,60.72
2018-02-13T10:10:27.264Z,59.17
2018-02-13T10:12:54.821Z,58.91
2018-02-13T10:15:22.339Z,62.67
2018-02-13T10:17:50.148Z,60.10
2018-02-13T10:20:17.678Z,60.41
2018-02-13T10:22:45.218Z,61.78
2018-02-13T10:25:12.769Z,62.36
2018-02-13T10:27:40.514Z,59.69
2018-02-13T10:30:08.177Z,59.00
2018-02-13T10:32:35.735Z,59.06
2018-02-13T10:35:03.245Z,60.65
2018-02-13T10:37:30.997Z,59.29
2018-02-13T10:39:58.729Z,60.07
2018-02-13T10:42:26.274Z,58.11
2018-02-13T10:44:53.810Z,58.72
2018-02-13T10:47:21.344Z,58.96
2018-02-13T10:49:49.726Z,60.08
2018-02-13T10:52:17.284Z,58.80
2018-02-13T10:54:44.825Z,58.61
2018-02-13T10:57:12.335Z,59.14
2018-02-13T10:59:40.101Z,58.52
2018-02-13T11:02:13.084Z,58.19
2018-02-13T11:04:40.825Z,59.25
2018-02-13T11:07:08.490Z,61.49
2018-02-13T11:09:36.010Z,59.72
2018-02-13T11:12:03.871Z,59.65
2018-02-13T11:14:32.359Z,59.94
2018-02-13T11:16:59.894Z,61.99
2018-02-13T11:19:27.467Z,60.31
2018-02-13T11:21:55.356Z,61.78
2018-02-13T11:24:22.902Z,61.62
2018-02-13T11:26:50.436Z,62.28
2018-02-13T11:29:17.953Z,60.94
2018-02-13T11:31:45.504Z,59.80
2018-02-13T11:34:13.064Z,58.69
2018-02-13T11:36:40.910Z,59.70
2018-02-13T11:39:08.496Z,57.15
2018-02-13T11:41:36.025Z,57.27
2018-02-13T11:44:03.570Z,58.02
2018-02-13T11:46:31.107Z,57.44
2018-02-13T11:48:58.631Z,55.98
2018-02-13T11:51:26.195Z,55.50
2018-02-13T11:53:54.548Z,53.47
2018-02-13T11:56:22.078Z,53.40
2018-02-13T11:58:49.611Z,56.94
2018-02-13T12:01:17.177Z,54.26
2018-02-13T12:03:44.981Z,53.37
2018-02-13T12:06:12.494Z,53.72
2018-02-13T12:08:40.046Z,52.30
2018-02-13T12:11:07.609Z,54.34
2018-02-13T12:13:35.166Z,53.51
2018-02-13T12:16:03.599Z,53.13
2018-02-13T12:18:31.172Z,53.36
2018-02-13T12:20:58.734Z,51.07
2018-02-13T12:23:26.289Z,51.79
2018-02-13T12:25:53.855Z,51.44
2018-02-13T12:28:21.382Z,52.61
2018-02-13T12:30:48.955Z,53.80
2018-02-13T12:33:16.734Z,52.88
2018-02-13T12:35:44.274Z,54.31
2018-02-13T12:38:11.809Z,55.30
2018-02-13T12:40:39.621Z,59.14
2018-02-13T12:43:07.172Z,57.73
2018-02-13T12:45:34.733Z,58.69
2018-02-13T12:48:03.078Z,59.44
2018-02-13T12:50:31.120Z,58.67
2018-02-13T12:52:59.344Z,59.89
2018-02-13T12:55:27.558Z,60.52
2018-02-13T12:57:55.292Z,59.12
2018-02-13T13:00:23.618Z,59.97
2018-02-13T13:02:51.184Z,59.05
2018-02-13T13:05:18.757Z,61.13
2018-02-13T13:07:46.313Z,61.44
2018-02-13T13:10:13.887Z,62.23
2018-02-13T13:12:41.440Z,60.93
2018-02-13T13:15:09.278Z,61.63
2018-02-13T13:17:36.863Z,63.14
2018-02-13T13:20:04.624Z,61.68
2018-02-13T13:22:32.155Z,62.25
2018-02-13T13:24:59.694Z,62.04
2018-02-13T13:27:27.423Z,62.41
2018-02-13T13:29:55.233Z,64.04
2018-02-13T13:32:22.841Z,64.45
2018-02-13T13:38:11.727Z,63.50
2018-02-13T13:40:39.569Z,65.03
2018-02-13T13:43:07.089Z,65.41
2018-02-13T13:45:34.617Z,65.75
2018-02-13T13:48:02.172Z,67.04
2018-02-13T13:50:29.774Z,67.66
2018-02-13T13:52:57.402Z,66.76
2018-02-13T13:55:25.029Z,68.24
2018-02-13T13:57:52.626Z,68.37
2018-02-13T14:00:20.255Z,68.24
2018-02-13T14:02:47.823Z,67.41
2018-02-13T14:05:15.513Z,68.37
2018-02-13T14:07:43.044Z,67.17
2018-02-13T14:10:10.579Z,68.47
2018-02-13T14:12:38.111Z,67.77
2018-02-13T14:15:05.903Z,67.10
2018-02-13T14:17:33.997Z,66.09
2018-02-13T14:20:01.560Z,67.63
2018-02-13T14:22:29.140Z,67.61
2018-02-13T14:24:56.748Z,68.09
2018-02-13T14:27:24.280Z,68.39
2018-02-13T14:29:51.885Z,69.48
2018-02-13T14:32:19.423Z,68.64
2018-02-13T14:34:46.960Z,70.09
2018-02-13T14:37:14.670Z,68.85
2018-02-13T14:39:42.207Z,70.03
2018-02-13T14:42:09.770Z,69.06
2018-02-13T14:44:37.384Z,70.02
2018-02-13T14:47:05.631Z,70.80
2018-02-13T14:49:33.470Z,69.78
2018-02-13T14:52:01.063Z,70.30
2018-02-13T14:54:28.613Z,69.69
2018-02-13T14:56:56.796Z,70.54
2018-02-13T14:59:24.528Z,70.99
2018-02-13T15:01:52.123Z,70.89
2018-02-13T15:04:20.174Z,70.22
2018-02-13T15:06:48.168Z,70.80
2018-02-13T15:09:15.709Z,79.52
2018-02-13T15:11:43.472Z,79.02
2018-02-13T15:14:11.575Z,76.40
2018-02-13T15:16:40.013Z,76.16
2018-02-13T15:19:07.659Z,76.54
2018-02-13T15:21:35.214Z,75.74
2018-02-13T15:24:03.149Z,76.24
2018-02-13T15:26:30.789Z,75.94
2018-02-13T15:28:58.592Z,76.09
2018-02-13T15:31:26.218Z,77.08
2018-02-13T15:33:53.803Z,76.69
2018-02-13T15:36:21.604Z,76.24
2018-02-13T15:38:49.419Z,76.73
2018-02-13T15:41:17.066Z,76.92
2018-02-13T15:43:44.845Z,76.21
2018-02-13T15:46:12.448Z,76.06
2018-02-13T15:48:40.220Z,76.72
2018-02-13T15:51:07.820Z,77.37
2018-02-13T15:53:35.508Z,77.24
2018-02-13T15:56:03.366Z,76.72
2018-02-13T15:58:30.927Z,76.54
2018-02-13T16:00:58.576Z,76.88
2018-02-13T16:03:26.269Z,76.03
2018-02-13T16:05:53.977Z,77.50
2018-02-13T16:08:21.774Z,77.41
2018-02-13T16:10:49.326Z,77.38
2018-02-13T16:13:16.904Z,77.61
2018-02-13T16:15:44.486Z,77.50
2018-02-13T16:18:12.901Z,77.76
2018-02-13T16:20:40.537Z,77.81
2018-02-13T16:23:08.406Z,78.52
2018-02-13T16:25:36.375Z,78.21
2018-02-13T16:28:04.500Z,78.06
2018-02-13T16:30:32.111Z,78.27
2018-02-13T16:32:59.906Z,78.35
2018-02-13T16:35:27.748Z,77.81
2018-02-13T16:37:55.548Z,77.40
2018-02-13T16:40:23.183Z,78.35
2018-02-13T16:42:50.774Z,77.93
2018-02-13T16:45:18.642Z,77.14
2018-02-13T16:47:46.408Z,78.65
2018-02-13T16:50:15.039Z,78.35
2018-02-13T16:52:42.629Z,78.10
2018-02-13T16:55:10.432Z,78.61
2018-02-13T16:57:39.017Z,78.61
2018-02-13T17:00:06.652Z,77.75
2018-02-13T17:02:34.594Z,82.76
2018-02-13T17:05:02.217Z,81.82
2018-02-13T17:07:29.880Z,79.97
2018-02-13T17:09:57.581Z,78.44
2018-02-13T17:12:25.205Z,78.05
2018-02-13T17:14:52.982Z,77.32
2018-02-13T17:17:20.808Z,76.83
2018-02-13T17:19:48.558Z,78.09
2018-02-13T17:22:16.206Z,76.28
2018-02-13T17:24:44.017Z,77.44
2018-02-13T17:27:11.631Z,77.05
2018-02-13T17:29:39.240Z,77.32
2018-02-13T17:32:07.033Z,76.58
2018-02-13T17:34:34.668Z,76.54
2018-02-13T17:37:02.494Z,76.72
2018-02-13T17:39:30.131Z,75.50
2018-02-13T17:41:57.701Z,76.21
2018-02-13T17:44:25.289Z,76.89
2018-02-13T17:46:52.900Z,76.61
2018-02-13T17:49:20.685Z,75.85
2018-02-13T17:51:48.446Z,76.67
2018-02-13T17:54:16.035Z,76.74
2018-02-13T17:56:43.683Z,75.75
2018-02-13T17:59:11.313Z,76.67
2018-02-13T18:01:38.899Z,77.20
2018-02-13T18:04:06.473Z,74.57
2018-02-13T18:06:34.076Z,76.54
2018-02-13T18:09:01.715Z,75.86
2018-02-13T18:11:29.327Z,75.93
2018-02-13T18:13:57.135Z,76.51
2018-02-13T18:16:24.891Z,76.55
2018-02-13T18:18:52.480Z,76.62
2018-02-13T18:21:20.233Z,75.78
2018-02-13T18:23:47.844Z,75.75
2018-02-13T18:26:15.652Z,76.00
2018-02-13T18:28:43.440Z,75.72
2018-02-13T18:31:11.049Z,76.97
2018-02-13T18:33:38.640Z,75.90
2018-02-13T18:36:06.228Z,76.64
2018-02-13T18:38:33.818Z,75.87
2018-02-13T18:41:02.087Z,75.97
2018-02-13T18:43:30.369Z,76.66
2018-02-13T18:45:59.016Z,77.34
2018-02-13T18:48:26.610Z,75.74
2018-02-13T18:50:54.191Z,76.48
2018-02-13T18:53:22.118Z,75.93
2018-02-13T18:55:50.349Z,76.87
2018-02-13T18:58:18.074Z,76.28
2018-02-13T19:00:46.079Z,77.54
2018-02-13T19:03:13.724Z,76.21
2018-02-13T19:05:41.496Z,76.92
2018-02-13T19:08:10.843Z,92.90
2018-02-13T19:10:38.458Z,86.04
2018-02-13T19:13:06.223Z,84.78
2018-02-13T19:15:33.869Z,83.28
2018-02-13T19:18:01.496Z,79.16
2018-02-13T19:20:29.185Z,80.07
2018-02-13T19:22:56.978Z,79.68
2018-02-13T19:25:24.571Z,79.25
2018-02-13T19:27:52.181Z,78.83
2018-02-13T19:30:19.991Z,78.27
2018-02-13T19:32:49.362Z,78.70
2018-02-13T19:35:17.401Z,77.68
2018-02-13T19:37:46.910Z,77.33
2018-02-13T19:40:17.046Z,76.72
2018-02-13T19:42:47.374Z,78.72
2018-02-13T19:45:16.664Z,78.47
2018-02-13T19:47:45.976Z,77.77
2018-02-13T19:50:15.620Z,77.66
2018-02-13T19:52:44.677Z,77.06
2018-02-13T19:55:14.130Z,76.86
2018-02-13T19:57:43.381Z,78.02
2018-02-13T20:00:12.305Z,76.91
2018-02-13T20:02:40.871Z,77.09
2018-02-13T20:05:09.271Z,77.36
2018-02-13T20:07:37.658Z,77.53
2018-02-13T20:10:06.315Z,77.66
2018-02-13T20:12:35.578Z,77.37
2018-02-13T20:15:05.175Z,77.79
2018-02-13T20:17:33.774Z,77.30
2018-02-13T20:20:01.957Z,77.40
2018-02-13T20:22:30.482Z,77.47
2018-02-13T20:24:58.822Z,77.47
2018-02-13T20:27:27.211Z,77.21
2018-02-13T20:29:55.714Z,77.77
2018-02-13T20:32:23.689Z,76.56
2018-02-13T20:34:51.499Z,76.63
2018-02-13T20:37:19.383Z,77.51
2018-02-13T20:39:49.159Z,76.58
2018-02-13T20:42:17.155Z,76.98
2018-02-13T20:44:46.043Z,77.22
2018-02-13T20:47:13.995Z,76.86
2018-02-13T20:49:41.799Z,77.02
2018-02-13T20:52:09.549Z,76.77
2018-02-13T20:54:38.886Z,77.32
2018-02-13T20:57:06.915Z,76.94
2018-02-13T20:59:34.748Z,75.62
2018-02-13T21:02:02.625Z,77.33
2018-02-13T21:04:30.368Z,77.52
2018-02-13T21:06:58.462Z,76.94
2018-02-13T21:09:26.292Z,77.15
2018-02-13T21:11:54.062Z,77.07
2018-02-13T21:14:21.798Z,77.23
2018-02-13T21:16:49.399Z,76.76
2018-02-13T21:19:17.216Z,76.71
2018-02-13T21:21:44.838Z,76.45
2018-02-13T21:24:12.676Z,77.11
2018-02-13T21:26:40.430Z,77.13
2018-02-13T21:29:08.361Z,76.04
2018-02-13T21:31:36.377Z,77.09
2018-02-13T21:34:04.047Z,76.82
2018-02-13T21:36:31.846Z,76.56
2018-02-13T21:38:59.605Z,76.74
2018-02-13T21:41:27.304Z,76.75
2018-02-13T21:43:54.948Z,77.13
2018-02-13T21:46:22.556Z,77.28
2018-02-13T21:48:50.393Z,76.79
2018-02-13T21:51:17.984Z,77.10
2018-02-13T21:53:45.772Z,76.23
2018-02-13T21:56:13.931Z,77.52
2018-02-13T21:58:42.385Z,76.26
2018-02-13T22:01:09.985Z,77.32
2018-02-13T22:03:37.621Z,77.42
2018-02-13T22:06:05.257Z,77.33
2018-02-13T22:08:32.853Z,76.82
2018-02-13T22:11:00.645Z,76.89
2018-02-13T22:13:28.414Z,77.65
2018-02-13T22:15:56.037Z,77.12
2018-02-13T22:18:24.215Z,77.46
2018-02-13T22:20:51.785Z,77.01
2018-02-13T22:23:19.549Z,76.84
2018-02-13T22:25:51.198Z,76.07
2018-02-13T22:28:18.813Z,77.15
2018-02-13T22:30:46.405Z,77.36
2018-02-13T22:33:13.976Z,77.49
2018-02-13T22:35:41.557Z,76.10
2018-02-13T22:38:09.179Z,77.19
2018-02-13T22:40:36.777Z,76.53
2018-02-13T22:43:04.389Z,76.55
2018-02-13T22:45:32.154Z,76.52
2018-02-13T22:47:59.928Z,76.65
2018-02-13T22:50:27.582Z,77.32
2018-02-13T22:52:55.386Z,77.03
2018-02-13T22:55:23.019Z,75.96
2018-02-13T22:57:50.604Z,77.46
2018-02-13T23:00:21.344Z,77.44
2018-02-13T23:02:48.907Z,76.89
2018-02-13T23:05:16.665Z,77.39
2018-02-13T23:07:44.261Z,78.04
2018-02-13T23:10:11.887Z,77.46
2018-02-13T23:12:39.697Z,76.62
2018-02-13T23:15:07.477Z,77.34
2018-02-13T23:17:35.243Z,77.42
2018-02-13T23:20:02.846Z,77.59
2018-02-13T23:22:30.657Z,76.80
2018-02-13T23:24:58.431Z,77.37
2018-02-13T23:27:26.200Z,76.80
2018-02-13T23:29:53.961Z,77.21
2018-02-13T23:32:21.554Z,76.96
2018-02-13T23:34:49.286Z,77.10
2018-02-13T23:37:16.884Z,76.42
2018-02-13T23:39:44.488Z,77.01
2018-02-13T23:42:12.095Z,77.02
2018-02-13T23:44:39.793Z,77.60
2018-02-13T23:47:07.397Z,76.93
2018-02-13T23:49:35.001Z,77.38
2018-02-13T23:52:02.650Z,77.72
2018-02-13T23:54:30.529Z,77.20
2018-02-13T23:56:58.101Z,76.90
2018-02-13T23:59:25.747Z,76.98
